Time;durP1;ratioP1;P1;durP2;ratioP2;P2;SDS_P1;SDS_P2;PMS_P1;PMS_P2;Temp;Humidity;BMP_temperature;BMP_pressure;BME280_temperature;BME280_humidity;BME280_pressure;Samples;Min_cycle;Max_cycle;Signal;HPM_P1;HPM_P2
2022/11/08 00:02:26;;;;;;;;;;;;;;;-0.03;73.48;101729.13;1875092;76;20162;-64
2022/11/08 00:04:54;;;;;;;;;;;;;;;-0.14;73.86;101728.03;1869914;74;20194;-67
2022/11/08 00:15:40;;;;;;;;;;;;;;;-0.42;74.90;101733.91;1877406;76;20380;-64
2022/11/08 00:18:08;;;;;;;;;;;;;;;-0.43;75.23;101730.86;1878358;76;20274;-65
2022/11/08 00:20:36;;;;;;;;;;;;;;;-0.44;75.23;101725.25;1891952;75;20223;-63
2022/11/08 00:23:04;;;;;;;;;;;;;;;-0.46;75.20;101723.05;1871693;75;20144;-63
2022/11/08 00:25:32;;;;;;;;;;;;;;;-0.51;75.48;101723.36;1848108;77;20220;-61
2022/11/08 00:28:00;;;;;;;;;;;;;;;-0.53;75.76;101719.87;1896871;74;20244;-54
2022/11/08 00:30:28;;;;;;;;;;;;;;;-0.55;75.83;101715.08;1872601;76;20179;-56
2022/11/08 00:32:55;;;;;;;;;;;;;;;-0.60;75.88;101720.14;1880959;75;20198;-57
2022/11/08 00:35:23;;;;;;;;;;;;;;;-0.64;75.88;101714.87;1856722;77;20119;-60
2022/11/08 00:37:52;;;;;;;;;;;;;;;-0.62;75.72;101709.31;1895741;75;20114;-56
2022/11/08 00:40:20;;;;;;;;;;;;;;;-0.59;75.44;101710.26;1897108;75;20122;-56
2022/11/08 00:42:48;;;;;;;;;;;;;;;-0.57;75.20;101707.71;1874164;76;20277;-55
2022/11/08 00:45:16;;;;;;;;;;;;;;;-0.55;75.02;101707.32;1871957;76;20244;-59
2022/11/08 00:47:43;;;;;;;;;;;;;;;-0.55;74.90;101699.56;1879681;75;20200;-57
2022/11/08 00:50:11;;;;;;;;;;;;;;;-0.54;74.79;101704.30;1855384;77;20163;-58
2022/11/08 00:52:39;;;;;;;;;;;;;;;-0.54;74.76;101700.00;1870459;75;20235;-58
2022/11/08 00:55:07;;;;;;;;;;;;;;;-0.54;74.91;101697.84;1869327;76;20199;-57
2022/11/08 00:57:35;;;;;;;;;;;;;;;-0.60;75.44;101702.45;1870317;76;20107;-58
2022/11/08 01:00:03;;;;;;;;;;;;;;;-0.65;75.52;101705.36;1873349;76;20121;-58
2022/11/08 01:02:31;;;;;;;;;;;;;;;-0.64;75.35;101703.23;1871512;76;20278;-58
2022/11/08 01:04:59;;;;;;;;;;;;;;;-0.64;75.13;101705.83;1872690;76;20208;-53
2022/11/08 01:07:26;;;;;;;;;;;;;;;-0.65;75.07;101703.63;1870501;76;20255;-55
2022/11/08 01:09:54;;;;;;;;;;;;;;;-0.64;75.06;101703.23;1863295;76;20400;-55
2022/11/08 01:12:22;;;;;;;;;;;;;;;-0.68;75.11;101702.69;1863467;76;20249;-52
2022/11/08 01:14:50;;;;;;;;;;;;;;;-0.72;75.36;101698.30;1859217;76;20114;-62
2022/11/08 01:17:18;;;;;;;;;;;;;;;-0.75;75.34;101705.58;1869715;75;20164;-63
2022/11/08 01:19:46;;;;;;;;;;;;;;;-0.76;75.21;101696.48;1882648;76;20150;-57
2022/11/08 01:22:14;;;;;;;;;;;;;;;-0.78;75.28;101697.73;1856476;76;20179;-57
2022/11/08 01:24:42;;;;;;;;;;;;;;;-0.86;75.57;101697.56;1870246;76;20148;-58
2022/11/08 01:27:10;;;;;;;;;;;;;;;-0.94;76.02;101695.23;1872723;76;20263;-54
2022/11/08 01:29:37;;;;;;;;;;;;;;;-1.01;76.56;101700.67;1868577;76;20243;-58
2022/11/08 01:32:05;;;;;;;;;;;;;;;-1.09;77.02;101703.89;1872487;76;20199;-57
2022/11/08 01:34:33;;;;;;;;;;;;;;;-1.12;77.43;101703.84;1872028;76;20109;-55
2022/11/08 01:37:03;;;;;;;;;;;;;;;-1.12;77.63;101694.80;1849251;76;20120;-55
2022/11/08 01:39:31;;;;;;;;;;;;;;;-1.13;77.70;101697.78;1881684;76;20121;-57
2022/11/08 01:41:59;;;;;;;;;;;;;;;-1.10;77.65;101700.88;1878222;76;20207;-57
2022/11/08 01:44:27;;;;;;;;;;;;;;;-1.07;77.58;101702.22;1878082;76;20199;-58
2022/11/08 01:46:55;;;;;;;;;;;;;;;-0.98;77.17;101699.85;1878233;76;20105;-56
2022/11/08 01:49:24;;;;;;;;;;;;;;;-0.89;76.86;101701.79;1883111;76;20127;-56
2022/11/08 01:52:00;;;;;;;;;;;;;;;-0.81;76.58;101699.84;1886320;76;20145;-57
2022/11/08 01:54:32;;;;;;;;;;;;;;;-0.70;76.46;101703.08;1885116;76;20229;-56
2022/11/08 01:57:02;;;;;;;;;;;;;;;-0.61;76.32;101709.75;1884103;76;20162;-57
2022/11/08 01:59:30;;;;;;;;;;;;;;;-0.51;76.21;101704.38;1876729;76;20120;-57
2022/11/08 02:01:58;;;;;;;;;;;;;;;-0.44;76.10;101705.84;1883504;76;20148;-57
2022/11/08 02:04:26;;;;;;;;;;;;;;;-0.35;75.88;101715.52;1885177;76;20131;-58
2022/11/08 02:06:54;;;;;;;;;;;;;;;-0.30;75.74;101707.41;1885258;76;20174;-57
2022/11/08 02:09:22;;;;;;;;;;;;;;;-0.30;75.76;101710.42;1882649;76;20143;-56
2022/11/08 02:11:51;;;;;;;;;;;;;;;-0.33;75.96;101703.48;1881447;76;20168;-57
2022/11/08 02:14:18;;;;;;;;;;;;;;;-0.26;75.87;101705.77;1885216;76;20144;-55
2022/11/08 02:16:46;;;;;;;;;;;;;;;-0.22;75.77;101705.01;1885244;76;20131;-57
2022/11/08 02:19:16;;;;;;;;;;;;;;;-0.17;75.71;101703.36;1885120;76;20209;-57
2022/11/08 02:21:45;;;;;;;;;;;;;;;-0.18;75.69;101701.63;1884921;76;20167;-55
2022/11/08 02:24:13;;;;;;;;;;;;;;;-0.13;75.62;101706.49;1884835;76;20166;-55
2022/11/08 02:26:43;;;;;;;;;;;;;;;-0.08;75.48;101706.14;1880076;75;20132;-56
2022/11/08 02:29:24;;;;;;;;;;;;;;;-0.01;75.37;101710.60;1878923;76;20113;-54
2022/11/08 02:31:53;;;;;;;;;;;;;;;0.04;75.31;101705.92;1878112;76;20129;-57
2022/11/08 02:34:22;;;;;;;;;;;;;;;0.07;75.26;101706.00;1883021;75;20117;-57
2022/11/08 02:36:50;;;;;;;;;;;;;;;0.08;75.28;101701.28;1891957;75;20128;-59
2022/11/08 02:39:18;;;;;;;;;;;;;;;0.06;75.38;101701.25;1894788;76;20116;-58
2022/11/08 02:41:46;;;;;;;;;;;;;;;0.06;75.59;101705.56;1897240;74;20147;-57
2022/11/08 02:44:14;;;;;;;;;;;;;;;0.07;75.82;101712.47;1891231;76;20104;-60
2022/11/08 02:46:42;;;;;;;;;;;;;;;0.07;75.75;101709.88;1884901;76;20121;-48
2022/11/08 02:49:09;;;;;;;;;;;;;;;0.12;75.62;101716.03;1884795;76;20147;-49
2022/11/08 02:51:37;;;;;;;;;;;;;;;0.18;75.53;101717.44;1884875;76;20117;-53
2022/11/08 02:54:05;;;;;;;;;;;;;;;0.23;75.45;101714.52;1892681;76;20112;-59
2022/11/08 02:56:33;;;;;;;;;;;;;;;0.30;75.39;101707.75;1893223;76;20147;-50
2022/11/08 02:59:01;;;;;;;;;;;;;;;0.32;75.42;101712.10;1893734;76;20116;-53
2022/11/08 03:01:29;;;;;;;;;;;;;;;0.33;75.54;101712.56;1889679;76;20125;-55
2022/11/08 03:03:57;;;;;;;;;;;;;;;0.35;75.67;101707.39;1893825;76;20209;-55
2022/11/08 03:06:25;;;;;;;;;;;;;;;0.42;75.66;101712.27;1891656;76;20120;-56
2022/11/08 03:08:53;;;;;;;;;;;;;;;0.48;75.61;101715.86;1883197;76;20155;-56
2022/11/08 03:11:20;;;;;;;;;;;;;;;0.50;75.61;101711.58;1888305;76;20127;-57
2022/11/08 03:13:48;;;;;;;;;;;;;;;0.52;75.70;101714.20;1902534;75;20145;-51
2022/11/08 03:16:16;;;;;;;;;;;;;;;0.58;75.77;101718.19;1909625;75;20123;-51
2022/11/08 03:18:44;;;;;;;;;;;;;;;0.65;75.76;101716.59;1910778;75;20197;-55
2022/11/08 03:21:12;;;;;;;;;;;;;;;0.66;75.77;101715.29;1905980;75;20152;-52
2022/11/08 03:23:40;;;;;;;;;;;;;;;0.70;75.85;101714.52;1894968;76;20139;-54
2022/11/08 03:26:08;;;;;;;;;;;;;;;0.76;75.87;101715.05;1878877;76;20152;-53
2022/11/08 03:28:36;;;;;;;;;;;;;;;0.84;75.74;101717.33;1884998;76;20124;-51
2022/11/08 03:31:03;;;;;;;;;;;;;;;0.93;75.55;101720.08;1897919;75;20210;-52
2022/11/08 03:33:31;;;;;;;;;;;;;;;0.95;75.72;101721.40;1911694;75;20147;-53
2022/11/08 03:35:59;;;;;;;;;;;;;;;0.96;75.61;101719.27;1892023;75;20170;-53
2022/11/08 03:38:27;;;;;;;;;;;;;;;0.93;75.81;101717.48;1875947;76;20175;-54
2022/11/08 03:40:54;;;;;;;;;;;;;;;0.94;75.82;101723.53;1861038;76;20398;-49
2022/11/08 03:43:22;;;;;;;;;;;;;;;0.96;75.95;101729.64;1863324;76;20115;-47
2022/11/08 03:45:50;;;;;;;;;;;;;;;0.96;76.12;101721.44;1870159;76;20136;-53
2022/11/08 03:48:18;;;;;;;;;;;;;;;1.01;76.14;101729.70;1862137;76;20162;-54
2022/11/08 03:50:46;;;;;;;;;;;;;;;1.00;76.52;101724.95;1857998;76;20151;-50
2022/11/08 03:53:13;;;;;;;;;;;;;;;0.96;77.16;101725.75;1875516;76;20286;-53
2022/11/08 03:55:41;;;;;;;;;;;;;;;0.92;77.06;101721.34;1878778;76;20144;-50
2022/11/08 03:58:12;;;;;;;;;;;;;;;0.90;77.08;101719.16;1867941;76;20189;-56
2022/11/08 04:00:39;;;;;;;;;;;;;;;0.95;77.01;101720.97;1876825;76;20143;-53
2022/11/08 04:03:06;;;;;;;;;;;;;;;0.97;77.12;101718.41;1889391;76;20501;-53
2022/11/08 04:05:34;;;;;;;;;;;;;;;1.01;77.02;101718.89;1893937;76;20123;-53
2022/11/08 04:08:04;;;;;;;;;;;;;;;1.04;77.08;101718.95;1893894;76;20114;-57
2022/11/08 04:10:31;;;;;;;;;;;;;;;1.06;76.92;101721.14;1893828;76;20107;-55
2022/11/08 04:15:47;;;;;;;;;;;;;;;1.13;76.79;101722.98;1887331;76;20143;-58
2022/11/08 04:21:18;;;;;;;;;;;;;;;1.20;76.61;101725.67;1866231;76;20435;-55
2022/11/08 04:23:47;;;;;;;;;;;;;;;1.22;76.47;101728.75;1878816;76;20132;-55
2022/11/08 04:26:15;;;;;;;;;;;;;;;1.24;76.47;101726.19;1885334;76;20143;-53
2022/11/08 04:28:43;;;;;;;;;;;;;;;1.24;76.59;101726.19;1882656;76;20117;-56
2022/11/08 04:31:15;;;;;;;;;;;;;;;1.23;76.73;101729.19;1868994;75;20215;-58
2022/11/08 04:33:43;;;;;;;;;;;;;;;1.19;76.94;101726.10;1873858;76;20121;-59
2022/11/08 04:36:12;;;;;;;;;;;;;;;1.21;77.00;101728.73;1873654;76;20121;-58
2022/11/08 04:38:40;;;;;;;;;;;;;;;1.24;76.90;101722.30;1874810;76;20219;-59
2022/11/08 04:41:12;;;;;;;;;;;;;;;1.30;76.82;101730.16;1873768;75;20617;-57
2022/11/08 04:43:40;;;;;;;;;;;;;;;1.32;76.76;101726.73;1874450;76;20347;-56
2022/11/08 04:46:09;;;;;;;;;;;;;;;1.36;76.67;101728.94;1875628;76;20208;-57
2022/11/08 04:48:37;;;;;;;;;;;;;;;1.40;76.61;101728.13;1874181;76;20548;-56
2022/11/08 04:51:09;;;;;;;;;;;;;;;1.42;76.63;101727.76;1874145;76;20246;-56
2022/11/08 04:53:37;;;;;;;;;;;;;;;1.41;76.73;101732.92;1868030;76;20243;-59
2022/11/08 04:56:06;;;;;;;;;;;;;;;1.41;76.90;101729.03;1875984;76;20148;-58
2022/11/08 04:58:36;;;;;;;;;;;;;;;1.44;76.87;101735.14;1873126;76;20384;-58
2022/11/08 05:01:04;;;;;;;;;;;;;;;1.45;76.96;101740.75;1872933;75;20355;-57
2022/11/08 05:03:32;;;;;;;;;;;;;;;1.44;77.04;101746.81;1876101;76;20406;-56
2022/11/08 05:06:01;;;;;;;;;;;;;;;1.44;77.41;101750.71;1874333;76;20164;-57
2022/11/08 05:08:29;;;;;;;;;;;;;;;1.42;78.17;101755.01;1871473;76;20228;-55
2022/11/08 05:11:02;;;;;;;;;;;;;;;1.34;77.82;101758.77;1874106;76;20212;-57
2022/11/08 05:13:30;;;;;;;;;;;;;;;1.36;77.99;101758.79;1875436;76;20121;-56
2022/11/08 05:16:02;;;;;;;;;;;;;;;1.43;77.87;101750.68;1872439;76;20129;-57
2022/11/08 05:18:30;;;;;;;;;;;;;;;1.46;77.75;101752.03;1874066;76;20552;-58
2022/11/08 05:23:45;;;;;;;;;;;;;;;1.46;77.72;101750.30;1874318;75;20164;-57
2022/11/08 05:26:14;;;;;;;;;;;;;;;1.44;77.79;101757.20;1874452;76;20544;-54
2022/11/08 05:28:42;;;;;;;;;;;;;;;1.47;77.79;101759.81;1875193;76;20164;-56
2022/11/08 05:31:09;;;;;;;;;;;;;;;1.56;77.65;101763.42;1875388;76;20238;-55
2022/11/08 05:33:37;;;;;;;;;;;;;;;1.61;77.45;101770.42;1873301;76;20168;-60
2022/11/08 05:36:06;;;;;;;;;;;;;;;1.62;77.27;101763.49;1876247;76;20399;-59
2022/11/08 05:38:35;;;;;;;;;;;;;;;1.67;77.16;101767.03;1877762;76;20498;-56
2022/11/08 05:41:04;;;;;;;;;;;;;;;1.66;77.08;101764.88;1881371;76;20163;-57
2022/11/08 05:43:32;;;;;;;;;;;;;;;1.66;77.12;101771.36;1885386;75;20112;-55
2022/11/08 05:46:00;;;;;;;;;;;;;;;1.67;77.10;101773.52;1893196;75;20131;-57
2022/11/08 05:48:27;;;;;;;;;;;;;;;1.66;76.98;101773.06;1885100;76;20174;-58
2022/11/08 05:50:56;;;;;;;;;;;;;;;1.62;76.95;101772.14;1867000;76;20149;-57
2022/11/08 05:53:23;;;;;;;;;;;;;;;1.60;77.14;101769.09;1884920;76;20140;-57
2022/11/08 05:55:53;;;;;;;;;;;;;;;1.61;77.17;101768.25;1885222;76;20144;-57
2022/11/08 05:58:20;;;;;;;;;;;;;;;1.60;77.14;101771.69;1884858;76;20123;-56
2022/11/08 06:00:48;;;;;;;;;;;;;;;1.62;77.21;101768.69;1884194;76;20132;-59
2022/11/08 06:03:16;;;;;;;;;;;;;;;1.64;77.17;101765.28;1885170;76;20143;-48
2022/11/08 06:05:44;;;;;;;;;;;;;;;1.70;77.12;101767.09;1885240;76;20140;-56
2022/11/08 06:08:11;;;;;;;;;;;;;;;1.73;77.16;101768.00;1885197;76;20144;-58
2022/11/08 06:10:39;;;;;;;;;;;;;;;1.75;77.18;101773.19;1885224;76;20183;-58
2022/11/08 06:13:07;;;;;;;;;;;;;;;1.76;77.18;101777.98;1885179;76;20144;-55
2022/11/08 06:15:35;;;;;;;;;;;;;;;1.83;77.06;101783.28;1885446;76;20117;-55
2022/11/08 06:18:04;;;;;;;;;;;;;;;1.88;77.08;101778.12;1885530;76;20121;-57
2022/11/08 06:20:32;;;;;;;;;;;;;;;1.91;76.92;101775.15;1876170;76;20112;-58
2022/11/08 06:23:00;;;;;;;;;;;;;;;1.93;76.89;101774.73;1869627;77;20168;-60
2022/11/08 06:25:28;;;;;;;;;;;;;;;1.94;76.89;101774.34;1871928;76;20121;-60
2022/11/08 06:27:55;;;;;;;;;;;;;;;1.96;76.90;101775.66;1878331;76;20124;-61
2022/11/08 06:30:23;;;;;;;;;;;;;;;1.96;77.20;101782.16;1878127;76;20104;-61
2022/11/08 06:32:51;;;;;;;;;;;;;;;1.97;77.35;101776.09;1879841;76;20258;-62
2022/11/08 06:35:19;;;;;;;;;;;;;;;2.03;77.43;101773.56;1885417;75;20148;-62
2022/11/08 06:37:48;;;;;;;;;;;;;;;2.12;77.40;101771.08;1885207;76;20135;-63
2022/11/08 06:40:16;;;;;;;;;;;;;;;2.24;77.17;101772.53;1893973;75;20120;-55
2022/11/08 06:42:44;;;;;;;;;;;;;;;2.37;76.94;101767.48;1893744;76;20151;-54
2022/11/08 06:45:12;;;;;;;;;;;;;;;2.42;76.75;101764.52;1893848;76;20116;-53
2022/11/08 06:47:40;;;;;;;;;;;;;;;2.41;76.55;101770.13;1893931;76;20175;-48
2022/11/08 06:50:08;;;;;;;;;;;;;;;2.42;76.57;101763.22;1893873;76;20146;-57
2022/11/08 06:52:35;;;;;;;;;;;;;;;2.40;76.55;101768.80;1893844;76;20108;-61
2022/11/08 06:55:04;;;;;;;;;;;;;;;2.42;76.45;101772.31;1893788;76;20112;-61
2022/11/08 06:57:33;;;;;;;;;;;;;;;2.43;76.37;101761.05;1893841;76;20136;-60
2022/11/08 07:00:01;;;;;;;;;;;;;;;2.41;76.31;101762.76;1894776;74;20269;-51
2022/11/08 07:02:28;;;;;;;;;;;;;;;2.44;76.26;101757.61;1896516;76;20122;-50
2022/11/08 07:04:56;;;;;;;;;;;;;;;2.43;76.21;101755.41;1894008;76;20108;-52
2022/11/08 07:07:25;;;;;;;;;;;;;;;2.50;76.21;101762.86;1896436;76;20120;-57
2022/11/08 07:09:52;;;;;;;;;;;;;;;2.51;76.29;101759.42;1893285;76;20155;-57
2022/11/08 07:12:20;;;;;;;;;;;;;;;2.49;76.33;101755.91;1890820;76;20121;-57
2022/11/08 07:14:48;;;;;;;;;;;;;;;2.59;76.33;101754.30;1899831;75;20143;-58
2022/11/08 07:17:16;;;;;;;;;;;;;;;2.65;76.33;101757.80;1899652;75;20120;-56
2022/11/08 07:19:44;;;;;;;;;;;;;;;2.80;76.22;101760.12;1899398;76;20132;-58
2022/11/08 07:22:12;;;;;;;;;;;;;;;2.91;76.29;101762.38;1899304;76;20120;-58
2022/11/08 07:24:40;;;;;;;;;;;;;;;2.91;76.15;101770.19;1899407;76;20179;-56
2022/11/08 07:27:07;;;;;;;;;;;;;;;2.94;75.96;101771.53;1894210;75;20104;-57
2022/11/08 07:29:35;;;;;;;;;;;;;;;3.01;75.81;101764.66;1893841;76;20151;-57
2022/11/08 07:32:03;;;;;;;;;;;;;;;3.08;75.72;101760.81;1893829;76;20117;-57
2022/11/08 07:34:32;;;;;;;;;;;;;;;3.13;75.78;101761.28;1893812;76;20164;-57
2022/11/08 07:37:00;;;;;;;;;;;;;;;3.09;75.83;101761.68;1897193;75;20187;-57
2022/11/08 07:39:27;;;;;;;;;;;;;;;3.14;76.03;101759.99;1891914;76;20383;-58
2022/11/08 07:41:55;;;;;;;;;;;;;;;3.24;75.95;101763.53;1880546;76;20121;-58
2022/11/08 07:44:25;;;;;;;;;;;;;;;3.24;75.94;101764.39;1880388;76;20169;-57
2022/11/08 07:46:55;;;;;;;;;;;;;;;3.30;75.72;101766.17;1880479;76;20116;-57
2022/11/08 07:49:22;;;;;;;;;;;;;;;3.26;75.63;101768.31;1880484;76;20375;-56
2022/11/08 07:51:50;;;;;;;;;;;;;;;3.29;75.62;101765.31;1880703;76;20172;-57
2022/11/08 07:54:18;;;;;;;;;;;;;;;3.35;75.51;101766.22;1880689;76;20113;-56
2022/11/08 07:56:46;;;;;;;;;;;;;;;3.40;75.42;101766.69;1880216;76;20117;-57
2022/11/08 07:59:14;;;;;;;;;;;;;;;3.47;75.39;101759.36;1868933;76;20113;-56
2022/11/08 08:01:42;;;;;;;;;;;;;;;3.58;75.31;101762.45;1868770;77;20151;-56
2022/11/08 08:04:11;;;;;;;;;;;;;;;3.64;75.22;101769.02;1868797;77;20192;-56
2022/11/08 08:06:39;;;;;;;;;;;;;;;3.66;75.10;101769.90;1868937;77;20387;-57
2022/11/08 08:09:06;;;;;;;;;;;;;;;3.68;75.01;101765.56;1869587;76;20109;-55
2022/11/08 08:11:34;;;;;;;;;;;;;;;3.77;74.99;101764.31;1868785;77;20117;-56
2022/11/08 08:14:02;;;;;;;;;;;;;;;3.95;74.98;101762.69;1868808;76;20117;-56
2022/11/08 08:16:30;;;;;;;;;;;;;;;3.96;74.69;101766.58;1879944;76;20198;-59
2022/11/08 08:18:58;;;;;;;;;;;;;;;4.00;74.63;101767.05;1880256;76;20109;-60
2022/11/08 08:21:26;;;;;;;;;;;;;;;4.03;74.57;101770.09;1880705;76;20147;-59
2022/11/08 08:23:54;;;;;;;;;;;;;;;4.16;74.53;101767.97;1880666;76;20121;-59
2022/11/08 08:26:22;;;;;;;;;;;;;;;4.30;74.43;101761.92;1880608;76;20113;-59
2022/11/08 08:28:50;;;;;;;;;;;;;;;4.33;74.19;101759.34;1879182;76;20198;-60
2022/11/08 08:31:18;;;;;;;;;;;;;;;4.35;74.10;101765.42;1876078;76;20199;-59
2022/11/08 08:33:46;;;;;;;;;;;;;;;4.44;74.17;101758.93;1876041;76;20145;-59
2022/11/08 08:36:14;;;;;;;;;;;;;;;4.57;74.13;101760.70;1876123;76;20113;-60
2022/11/08 08:38:42;;;;;;;;;;;;;;;4.60;74.04;101761.16;1875870;76;20608;-60
2022/11/08 08:41:10;;;;;;;;;;;;;;;4.60;73.89;101755.94;1870920;76;20195;-54
2022/11/08 08:43:38;;;;;;;;;;;;;;;4.62;73.87;101760.28;1880580;76;20160;-57
2022/11/08 08:46:06;;;;;;;;;;;;;;;4.59;73.73;101757.69;1880697;76;20121;-56
2022/11/08 08:48:34;;;;;;;;;;;;;;;4.59;73.69;101761.59;1880660;76;20117;-57
2022/11/08 08:51:02;;;;;;;;;;;;;;;4.59;73.67;101761.59;1880723;76;20163;-57
2022/11/08 08:53:30;;;;;;;;;;;;;;;4.62;73.65;101758.97;1880697;76;20105;-56
2022/11/08 08:55:58;;;;;;;;;;;;;;;4.61;73.78;101752.44;1880604;76;20125;-58
2022/11/08 08:58:26;;;;;;;;;;;;;;;4.67;73.85;101759.00;1880624;76;20117;-56
2022/11/08 09:00:54;;;;;;;;;;;;;;;4.73;73.70;101752.91;1880528;76;20108;-59
2022/11/08 09:03:21;;;;;;;;;;;;;;;4.78;73.53;101753.80;1880603;76;20114;-56
2022/11/08 09:05:49;;;;;;;;;;;;;;;4.87;73.45;101751.20;1880642;76;20151;-56
2022/11/08 09:08:17;;;;;;;;;;;;;;;4.97;73.35;101753.38;1880627;76;20105;-57
2022/11/08 09:10:46;;;;;;;;;;;;;;;5.01;73.14;101749.44;1877991;76;20125;-57
2022/11/08 09:13:13;;;;;;;;;;;;;;;5.06;72.95;101745.98;1876063;76;20148;-61
2022/11/08 09:15:41;;;;;;;;;;;;;;;5.09;72.92;101744.66;1878563;76;20152;-60
2022/11/08 09:18:09;;;;;;;;;;;;;;;5.09;72.86;101743.35;1880771;76;20113;-59
2022/11/08 09:20:38;;;;;;;;;;;;;;;5.11;72.80;101744.22;1880591;76;20121;-62
2022/11/08 09:23:06;;;;;;;;;;;;;;;5.12;72.66;101745.97;1880557;76;20117;-60
2022/11/08 09:25:34;;;;;;;;;;;;;;;5.17;72.61;101743.79;1880604;76;20118;-61
2022/11/08 09:28:01;;;;;;;;;;;;;;;5.21;72.60;101742.05;1880365;76;20168;-60
2022/11/08 09:30:29;;;;;;;;;;;;;;;5.15;72.40;101741.63;1844617;78;20194;-56
2022/11/08 09:32:57;;;;;;;;;;;;;;;5.06;72.42;101735.55;1864421;76;20144;-58
2022/11/08 09:35:25;;;;;;;;;;;;;;;4.99;72.45;101738.13;1868713;77;20125;-57
2022/11/08 09:37:53;;;;;;;;;;;;;;;5.07;72.63;101737.27;1868691;77;20238;-57
2022/11/08 09:40:23;;;;;;;;;;;;;;;5.23;72.69;101735.08;1870975;76;20164;-58
2022/11/08 09:42:52;;;;;;;;;;;;;;;5.40;72.54;101732.03;1881829;76;20121;-57
2022/11/08 09:45:40;;;;;;;;;;;;;;;5.54;72.38;101739.82;1885984;76;20117;-57
2022/11/08 09:48:09;;;;;;;;;;;;;;;5.76;72.52;101738.02;1886577;76;20151;-59
2022/11/08 09:50:44;;;;;;;;;;;;;;;6.16;71.95;101734.41;1883377;76;20222;-58
2022/11/08 09:53:33;;;;;;;;;;;;;;;6.55;71.05;101730.70;1884338;76;20105;-58
2022/11/08 09:56:00;;;;;;;;;;;;;;;6.90;70.08;101726.97;1886344;76;20113;-58
2022/11/08 09:58:32;;;;;;;;;;;;;;;7.39;68.82;101724.78;1886685;76;20148;-59
2022/11/08 10:01:00;;;;;;;;;;;;;;;7.70;67.87;101726.19;1885877;76;20116;-58
2022/11/08 10:03:28;;;;;;;;;;;;;;;7.77;67.87;101723.52;1885946;76;20120;-58
2022/11/08 10:06:03;;;;;;;;;;;;;;;7.72;68.15;101719.17;1886807;76;20117;-58
2022/11/08 10:08:39;;;;;;;;;;;;;;;7.78;68.10;101714.75;1886794;76;20148;-58
2022/11/08 10:11:08;;;;;;;;;;;;;;;7.90;67.85;101714.61;1886100;76;20105;-59
2022/11/08 10:13:46;;;;;;;;;;;;;;;8.46;66.67;101718.23;1884482;76;20156;-58
2022/11/08 10:16:22;;;;;;;;;;;;;;;8.68;65.79;101715.30;1885430;76;20104;-56
2022/11/08 10:18:51;;;;;;;;;;;;;;;8.58;65.87;101711.09;1853128;77;20197;-56
2022/11/08 10:21:20;;;;;;;;;;;;;;;9.50;64.19;101714.78;1853341;77;20118;-57
2022/11/08 10:23:52;;;;;;;;;;;;;;;10.30;62.18;101710.49;1868112;76;20219;-56
2022/11/08 10:26:22;;;;;;;;;;;;;;;10.53;61.73;101707.38;1885563;76;20143;-57
2022/11/08 10:28:52;;;;;;;;;;;;;;;10.92;60.41;101707.74;1886758;76;20409;-56
2022/11/08 10:31:20;;;;;;;;;;;;;;;11.25;59.28;101703.83;1886696;76;20109;-56
2022/11/08 10:33:49;;;;;;;;;;;;;;;11.87;57.94;101699.91;1886707;76;20116;-60
2022/11/08 10:36:18;;;;;;;;;;;;;;;12.10;56.99;101697.09;1885317;76;20167;-55
2022/11/08 10:38:54;;;;;;;;;;;;;;;12.06;57.24;101695.44;1886107;76;20113;-55
2022/11/08 10:41:30;;;;;;;;;;;;;;;11.71;57.46;101694.66;1862349;76;20164;-56
2022/11/08 10:43:59;;;;;;;;;;;;;;;11.33;58.08;101698.77;1878758;76;20116;-57
2022/11/08 10:46:28;;;;;;;;;;;;;;;11.10;58.79;101700.72;1879152;76;20121;-58
2022/11/08 10:48:57;;;;;;;;;;;;;;;11.16;58.64;101693.95;1880610;76;20117;-57
2022/11/08 10:51:25;;;;;;;;;;;;;;;11.86;57.33;101690.28;1880643;76;20113;-61
2022/11/08 10:53:53;;;;;;;;;;;;;;;12.47;55.88;101690.67;1880619;76;20117;-56
2022/11/08 10:56:23;;;;;;;;;;;;;;;12.88;55.42;101685.34;1880352;76;20312;-56
2022/11/08 10:58:50;;;;;;;;;;;;;;;13.25;54.35;101688.05;1880565;76;20101;-59
2022/11/08 11:01:23;;;;;;;;;;;;;;;13.32;54.34;101690.91;1880546;76;20180;-56
2022/11/08 11:03:52;;;;;;;;;;;;;;;13.17;54.16;101686.58;1880592;76;20124;-56
2022/11/08 11:06:22;;;;;;;;;;;;;;;12.91;54.24;101687.89;1878409;76;20379;-57
2022/11/08 11:08:51;;;;;;;;;;;;;;;12.87;54.57;101688.92;1876120;76;20117;-57
2022/11/08 11:11:29;;;;;;;;;;;;;;;12.85;54.67;101693.83;1875945;76;20105;-57
2022/11/08 11:14:17;;;;;;;;;;;;;;;12.88;54.82;101683.17;1876019;76;20117;-57
2022/11/08 11:16:58;;;;;;;;;;;;;;;12.44;55.22;101690.77;1876747;76;20101;-57
2022/11/08 11:19:27;;;;;;;;;;;;;;;12.03;56.33;101688.95;1880525;76;20600;-57
2022/11/08 11:21:56;;;;;;;;;;;;;;;12.00;55.76;101685.92;1880440;76;20121;-56
2022/11/08 11:24:24;;;;;;;;;;;;;;;12.12;55.48;101684.72;1878992;76;20120;-58
2022/11/08 11:27:06;;;;;;;;;;;;;;;12.22;55.26;101687.92;1869110;76;20149;-57
2022/11/08 11:29:35;;;;;;;;;;;;;;;12.13;55.27;101690.38;1844662;78;20369;-57
2022/11/08 11:32:21;;;;;;;;;;;;;;;12.04;55.60;101685.38;1844022;78;20150;-57
2022/11/08 11:34:56;;;;;;;;;;;;;;;12.26;55.50;101686.45;1844656;78;20119;-57
2022/11/08 11:37:28;;;;;;;;;;;;;;;12.23;55.63;101683.92;1844672;78;20115;-57
2022/11/08 11:40:02;;;;;;;;;;;;;;;12.00;55.83;101693.84;1867708;77;20106;-57
2022/11/08 11:42:34;;;;;;;;;;;;;;;11.76;56.17;101698.03;1875128;76;20359;-57
2022/11/08 11:45:09;;;;;;;;;;;;;;;11.72;56.40;101705.63;1878355;76;20199;-57
2022/11/08 11:47:39;;;;;;;;;;;;;;;11.68;56.32;101706.64;1878297;76;20152;-57
2022/11/08 11:50:14;;;;;;;;;;;;;;;11.59;56.81;101706.43;1879563;76;20148;-55
2022/11/08 11:52:42;;;;;;;;;;;;;;;11.40;57.61;101699.48;1869406;76;20168;-55
2022/11/08 11:55:11;;;;;;;;;;;;;;;10.78;58.79;101704.15;1886701;76;20120;-56
2022/11/08 11:57:49;;;;;;;;;;;;;;;10.22;59.85;101697.50;1883260;76;20116;-50
2022/11/08 12:00:18;;;;;;;;;;;;;;;9.72;60.54;101706.03;1885666;76;20121;-54
2022/11/08 12:02:47;;;;;;;;;;;;;;;9.33;61.19;101706.33;1908744;75;20141;-51
2022/11/08 12:05:17;;;;;;;;;;;;;;;9.06;61.96;101701.54;1917485;75;20119;-51
2022/11/08 12:07:56;;;;;;;;;;;;;;;8.81;62.04;101704.16;1917407;75;20145;-55
2022/11/08 12:10:28;;;;;;;;;;;;;;;8.53;62.29;101701.11;1914169;75;20149;-54
2022/11/08 12:13:14;;;;;;;;;;;;;;;8.31;62.59;101702.69;1916188;75;20145;-56
2022/11/08 12:15:46;;;;;;;;;;;;;;;8.17;62.93;101704.22;1917447;75;20268;-57
2022/11/08 12:18:24;;;;;;;;;;;;;;;8.05;63.07;101706.53;1917508;75;20211;-57
2022/11/08 12:20:53;;;;;;;;;;;;;;;8.01;63.24;101712.72;1914450;75;20154;-57
2022/11/08 12:23:32;;;;;;;;;;;;;;;7.91;63.30;101707.15;1916928;75;20145;-56
2022/11/08 12:26:04;;;;;;;;;;;;;;;7.82;63.48;101712.09;1913214;75;20228;-54
2022/11/08 12:28:49;;;;;;;;;;;;;;;7.70;63.79;101706.52;1905570;74;20193;-58
2022/11/08 12:31:22;;;;;;;;;;;;;;;7.57;64.00;101712.80;1867167;77;20103;-57
2022/11/08 12:33:54;;;;;;;;;;;;;;;7.49;64.09;101717.27;1863681;77;20122;-57
2022/11/08 12:36:40;;;;;;;;;;;;;;;7.40;64.30;101719.53;1863649;77;20161;-57
2022/11/08 12:39:26;;;;;;;;;;;;;;;7.34;64.46;101715.23;1863796;77;20240;-56
2022/11/08 12:42:02;;;;;;;;;;;;;;;7.30;64.61;101721.39;1863188;77;20145;-55
2022/11/08 12:44:40;;;;;;;;;;;;;;;7.25;64.69;101720.56;1895275;76;20108;-55
2022/11/08 12:47:10;;;;;;;;;;;;;;;7.21;64.81;101711.00;1889816;76;20117;-61
2022/11/08 12:49:52;;;;;;;;;;;;;;;7.20;64.97;101719.72;1920362;75;20119;-58
2022/11/08 12:52:21;;;;;;;;;;;;;;;7.18;65.02;101714.95;1919821;74;20110;-60
2022/11/08 12:54:53;;;;;;;;;;;;;;;7.16;65.02;101719.33;1921114;74;20106;-58
2022/11/08 12:57:26;;;;;;;;;;;;;;;7.10;65.12;101715.02;1920588;74;20102;-58
2022/11/08 12:59:52;;;;;;;;;;;;;;;7.04;65.27;101718.13;1920128;75;20115;-60
2022/11/08 13:02:21;;;;;;;;;;;;;;;7.00;65.37;101715.11;1920417;75;20115;-60
2022/11/08 13:04:55;;;;;;;;;;;;;;;6.96;65.50;101719.05;1893378;75;20150;-58
2022/11/08 13:07:24;;;;;;;;;;;;;;;6.93;65.58;101717.80;1887459;75;20166;-58
2022/11/08 13:10:02;;;;;;;;;;;;;;;6.92;65.66;101719.11;1894265;74;20149;-58
2022/11/08 13:12:34;;;;;;;;;;;;;;;6.88;65.75;101711.72;1894099;76;20102;-60